createdAt,value
2023-04-21T00:00:03.621Z,100
2023-04-21T00:05:03.109Z,100
2023-04-21T00:10:03.324Z,100
2023-04-21T00:15:03.045Z,100
2023-04-21T00:20:02.780Z,100
2023-04-21T00:25:02.638Z,100
2023-04-21T00:30:03.473Z,100
2023-04-21T00:35:03.293Z,100
2023-04-21T00:40:03.000Z,100
2023-04-21T00:45:02.688Z,100
2023-04-21T00:50:03.460Z,100
2023-04-21T00:55:03.815Z,100
2023-04-21T01:00:03.016Z,100
2023-04-21T01:05:02.999Z,100
2023-04-21T01:10:02.802Z,100
2023-04-21T01:15:03.643Z,100
2023-04-21T01:20:03.281Z,100
2023-04-21T01:25:03.339Z,100
2023-04-21T01:30:03.152Z,100
2023-04-21T01:35:02.863Z,100
2023-04-21T01:40:02.753Z,100
2023-04-21T01:45:03.467Z,100
2023-04-21T01:50:03.118Z,100
2023-04-21T01:55:03.206Z,100
2023-04-21T02:00:03.184Z,100
2023-04-21T02:05:02.633Z,100
2023-04-21T02:10:03.472Z,100
2023-04-21T02:15:03.275Z,100
2023-04-21T02:20:04.653Z,100
2023-04-21T02:25:02.308Z,100
2023-04-21T02:30:02.679Z,100
2023-04-21T02:35:03.633Z,100
2023-04-21T02:40:03.093Z,100
2023-04-21T02:45:02.840Z,100
2023-04-21T02:50:03.468Z,100
2023-04-21T02:55:03.702Z,100
2023-04-21T03:00:03.288Z,100
2023-04-21T03:05:02.836Z,100
2023-04-21T03:10:03.031Z,100
2023-04-21T03:15:02.842Z,100
2023-04-21T03:20:03.598Z,100
2023-04-21T03:25:03.491Z,100
2023-04-21T03:30:03.316Z,100
2023-04-21T03:35:03.044Z,100
2023-04-21T03:40:02.735Z,100
2023-04-21T03:45:03.470Z,100
2023-04-21T03:50:03.192Z,100
2023-04-21T03:55:03.045Z,100
2023-04-21T04:00:02.708Z,100
2023-04-21T04:05:03.611Z,100
2023-04-21T04:10:03.115Z,100
2023-04-21T04:15:03.187Z,100
2023-04-21T04:20:02.907Z,100
2023-04-21T04:25:02.679Z,100
2023-04-21T04:30:03.677Z,100
2023-04-21T04:35:03.330Z,100
2023-04-21T04:40:02.608Z,100
2023-04-21T04:45:03.001Z,100
2023-04-21T04:50:03.023Z,100
2023-04-21T04:55:03.331Z,100
2023-04-21T05:00:02.627Z,99.68
2023-04-21T05:05:03.820Z,99.01
2023-04-21T05:10:03.295Z,98.27
2023-04-21T05:15:02.946Z,97.55
2023-04-21T05:20:02.684Z,94.97
2023-04-21T05:25:02.632Z,94.75
2023-04-21T05:30:02.640Z,92.87
2023-04-21T05:35:03.408Z,92.85
2023-04-21T05:40:02.658Z,90.94
2023-04-21T05:45:03.096Z,90.41
2023-04-21T05:50:02.755Z,90.03
2023-04-21T05:55:02.691Z,87.79
2023-04-21T06:00:03.298Z,85.67
2023-04-21T06:05:03.909Z,87.36
2023-04-21T06:10:02.913Z,86.84
2023-04-21T06:15:03.114Z,83.77
2023-04-21T06:20:02.983Z,82.85
2023-04-21T06:25:02.629Z,83.37
2023-04-21T06:30:03.648Z,83.11
2023-04-21T06:35:03.268Z,81.95
2023-04-21T06:40:02.835Z,81.74
2023-04-21T06:45:02.598Z,81.5
2023-04-21T06:50:03.389Z,78.9
2023-04-21T07:00:03.177Z,78.12
2023-04-21T07:05:02.920Z,78.09
2023-04-21T07:10:02.590Z,77.98
2023-04-21T07:15:03.348Z,76.47
2023-04-21T07:30:03.515Z,72.28
2023-04-21T07:35:03.199Z,71.63
2023-04-21T07:40:03.270Z,71.72
2023-04-21T07:45:03.243Z,71.37
2023-04-21T07:50:02.903Z,69.2
2023-04-21T07:55:03.731Z,67.91
2023-04-21T08:00:02.805Z,67.86
2023-04-21T08:05:04.658Z,68.97
2023-04-21T08:10:03.164Z,66.5
2023-04-21T08:15:02.924Z,66.29
2023-04-21T08:20:02.915Z,62.08
2023-04-21T08:30:03.405Z,63.38
2023-04-21T08:35:02.719Z,64.08
2023-04-21T08:40:03.234Z,58.75
2023-04-21T08:45:02.975Z,60.44
2023-04-21T08:50:02.629Z,59.27
2023-04-21T08:55:04.255Z,60.2
2023-04-21T09:00:08.406Z,59.67
2023-04-21T09:05:04.460Z,58.72
2023-04-21T09:20:02.676Z,53.72
2023-04-21T09:30:03.328Z,51.24
2023-04-21T09:35:03.123Z,50.42
2023-04-21T09:40:05.973Z,52.52
2023-04-21T09:45:40.768Z,50.46
2023-04-21T09:50:03.241Z,48.02
2023-04-21T09:55:04.051Z,45.63
2023-04-21T10:00:03.350Z,47.13
2023-04-21T10:10:02.845Z,45.47
2023-04-21T10:15:02.750Z,45.72
2023-04-21T10:20:03.532Z,44.97
2023-04-21T10:25:03.300Z,45.21
2023-04-21T10:35:02.964Z,44.35
2023-04-21T10:40:02.768Z,43.63
2023-04-21T10:45:03.613Z,42.88
2023-04-21T10:50:03.257Z,44.9
2023-04-21T11:00:02.805Z,41.24
2023-04-21T11:05:03.733Z,42.82
2023-04-21T11:10:03.207Z,40.52
2023-04-21T11:15:03.116Z,39.82
2023-04-21T11:20:03.109Z,41.77
2023-04-21T11:25:03.460Z,40.23
2023-04-21T11:30:02.936Z,40.91
2023-04-21T11:35:02.661Z,40.16
2023-04-21T11:40:03.380Z,38.47
2023-04-21T11:45:03.160Z,37.45
2023-04-21T11:50:03.287Z,36.04
2023-04-21T11:55:04.111Z,35.46
2023-04-21T12:00:03.189Z,32.75
2023-04-21T12:05:04.072Z,34.88
2023-04-21T12:10:03.038Z,37.4
2023-04-21T12:15:02.769Z,33.6
2023-04-21T12:20:03.459Z,36.44
2023-04-21T12:25:03.272Z,36.15
2023-04-21T12:30:03.539Z,33.47
2023-04-21T12:35:03.592Z,34.32
2023-04-21T12:40:03.094Z,34.19
2023-04-21T12:45:02.793Z,32.21
2023-04-21T12:50:03.504Z,35.67
2023-04-21T12:55:03.664Z,38.32
2023-04-21T13:00:03.298Z,35.89
2023-04-21T13:05:03.028Z,36.61
2023-04-21T13:10:02.814Z,36.9
2023-04-21T13:15:02.677Z,37.83
2023-04-21T13:20:03.703Z,35.28
2023-04-21T13:25:03.022Z,30
2023-04-21T13:30:02.818Z,30.89
2023-04-21T13:35:02.952Z,29.8
2023-04-21T13:40:02.851Z,30.69
2023-04-21T13:45:03.580Z,30.27
2023-04-21T13:50:03.792Z,31.54
2023-04-21T13:55:03.459Z,30.08
2023-04-21T14:00:03.039Z,29.4
2023-04-21T14:05:03.776Z,32.47
2023-04-21T14:10:03.662Z,32.04
2023-04-21T14:15:03.045Z,30.85
2023-04-21T14:20:03.349Z,32.16
2023-04-21T14:25:02.755Z,30.92
2023-04-21T14:30:03.781Z,31.41
2023-04-21T14:35:03.403Z,31.27
2023-04-21T14:40:03.102Z,30.28
2023-04-21T14:45:02.984Z,31.52
2023-04-21T14:50:03.712Z,33.38
2023-04-21T14:55:03.775Z,32.69
2023-04-21T15:00:03.268Z,32.62
2023-04-21T15:05:03.058Z,33.75
2023-04-21T15:10:03.853Z,32.87
2023-04-21T15:15:03.583Z,35.86
2023-04-21T15:20:03.333Z,35.84
2023-04-21T15:25:03.232Z,35.33
2023-04-21T15:30:03.624Z,35.29
2023-04-21T15:35:02.695Z,34.86
2023-04-21T15:40:03.480Z,35.58
2023-04-21T15:45:03.542Z,34.18
2023-04-21T15:50:03.087Z,36.03
2023-04-21T15:55:02.991Z,35.92
2023-04-21T16:00:02.996Z,35.56
2023-04-21T16:05:04.369Z,35.65
2023-04-21T16:10:03.391Z,36.73
2023-04-21T16:15:25.070Z,34.1
2023-04-21T16:20:02.973Z,35.82
2023-04-21T16:25:03.057Z,35.99
2023-04-21T16:30:08.672Z,36.82
2023-04-21T16:35:02.846Z,37.68
2023-04-21T16:40:03.390Z,38.37
2023-04-21T16:45:03.484Z,38.27
2023-04-21T16:50:02.970Z,39.55
2023-04-21T16:55:03.119Z,39.92
2023-04-21T17:00:02.722Z,38.6
2023-04-21T17:05:03.672Z,38.41
2023-04-21T17:10:03.164Z,40.2
2023-04-21T17:15:03.447Z,40.59
2023-04-21T17:20:03.393Z,40.19
2023-04-21T17:25:03.082Z,39.37
2023-04-21T17:30:02.704Z,40.41
2023-04-21T17:35:02.726Z,41.51
2023-04-21T17:40:03.968Z,41.75
2023-04-21T17:45:03.381Z,42.87
2023-04-21T17:50:02.975Z,44.04
2023-04-21T17:55:03.313Z,44.19
2023-04-21T18:00:02.631Z,44.33
2023-04-21T18:05:03.707Z,45.65
2023-04-21T18:10:03.330Z,46.49
2023-04-21T18:15:02.651Z,47.31
2023-04-21T18:20:02.849Z,48.31
2023-04-21T18:25:03.566Z,49.07
2023-04-21T18:30:03.319Z,48.2
2023-04-21T18:35:02.870Z,49.92
2023-04-21T18:40:02.592Z,50.16
2023-04-21T18:45:05.475Z,50.33
2023-04-21T18:50:03.189Z,50.87
2023-04-21T18:55:03.631Z,51.87
2023-04-21T19:00:02.679Z,52.31
2023-04-21T19:05:02.609Z,53.03
2023-04-21T19:10:03.463Z,54.99
2023-04-21T19:15:03.369Z,55.39
2023-04-21T19:20:03.164Z,54.95
2023-04-21T19:25:02.960Z,53.51
2023-04-21T19:30:02.760Z,53.95
2023-04-21T19:35:03.414Z,54.35
2023-04-21T19:40:03.321Z,54.24
2023-04-21T19:45:03.055Z,54.55
2023-04-21T19:50:03.136Z,55.05
2023-04-21T19:55:03.314Z,55.31
2023-04-21T20:00:02.854Z,55.54
2023-04-21T20:05:03.806Z,55.33
2023-04-21T20:10:03.212Z,55.64
2023-04-21T20:15:03.017Z,56.33
2023-04-21T20:20:02.728Z,56.39
2023-04-21T20:25:02.590Z,57.22
2023-04-21T20:30:03.391Z,57.9
2023-04-21T20:35:03.104Z,59.15
2023-04-21T20:40:02.452Z,59.12
2023-04-21T20:45:03.490Z,59.86
2023-04-21T20:50:03.489Z,59.16
2023-04-21T20:55:03.683Z,59.7
2023-04-21T21:00:02.730Z,60.46
2023-04-21T21:05:03.189Z,60.07
2023-04-21T21:10:03.592Z,60.01
2023-04-21T21:15:03.370Z,60.35
2023-04-21T21:20:03.019Z,61.17
2023-04-21T21:25:02.832Z,61.17
2023-04-21T21:30:03.613Z,60.93
2023-04-21T21:35:03.242Z,60.9
2023-04-21T21:40:03.272Z,61.91
2023-04-21T21:45:02.981Z,61.92
2023-04-21T21:50:02.712Z,62.84
2023-04-21T21:55:03.936Z,63.41
2023-04-21T22:00:03.347Z,62.94
2023-04-21T22:05:02.976Z,64.08
2023-04-21T22:10:02.932Z,64.58
2023-04-21T22:15:03.224Z,64.63
2023-04-21T22:20:02.813Z,65.16
2023-04-21T22:25:02.726Z,65.91
2023-04-21T22:30:02.847Z,66.44
2023-04-21T22:35:02.742Z,65.92
2023-04-21T22:40:03.412Z,65.36
2023-04-21T22:45:03.235Z,66.77
2023-04-21T22:50:03.018Z,66.83
2023-04-21T22:55:02.987Z,68.01
2023-04-21T23:00:03.030Z,68.23
2023-04-21T23:05:03.029Z,69.11
2023-04-21T23:10:02.821Z,69.31
2023-04-21T23:15:04.590Z,70.23
2023-04-21T23:20:03.481Z,69.28
2023-04-21T23:25:03.291Z,71.43
2023-04-21T23:30:03.265Z,71.96
2023-04-21T23:35:03.019Z,70.74
2023-04-21T23:40:02.781Z,69.36
2023-04-21T23:45:03.577Z,68.91
2023-04-21T23:50:03.336Z,68.69
2023-04-21T23:55:03.863Z,69.31
